createdAt,value
2023-03-05T00:01:34.953Z,12.50
2023-03-05T00:04:05.468Z,10.07
2023-03-05T00:06:33.016Z,12.80
2023-03-05T00:09:00.313Z,10.20
2023-03-05T00:11:30.297Z,7.40
2023-03-05T00:13:58.136Z,7.63
2023-03-05T00:16:27.029Z,7.97
2023-03-05T00:18:54.733Z,9.53
2023-03-05T00:21:21.324Z,10.53
2023-03-05T00:23:49.963Z,10.40
2023-03-05T00:26:18.174Z,7.53
2023-03-05T00:28:51.837Z,13.63
2023-03-05T00:31:20.783Z,7.53
2023-03-05T00:33:52.023Z,12.77
2023-03-05T00:36:18.658Z,11.30
2023-03-05T00:38:45.186Z,10.57
2023-03-05T00:41:11.806Z,10.17
2023-03-05T00:43:38.538Z,11.57
2023-03-05T00:46:05.298Z,8.77
2023-03-05T00:48:31.839Z,11.93
2023-03-05T00:50:58.356Z,11.37
2023-03-05T00:53:24.892Z,7.33
2023-03-05T00:55:51.564Z,8.93
2023-03-05T00:58:18.150Z,10.10
2023-03-05T01:00:44.655Z,9.80
2023-03-05T01:03:11.494Z,8.60
2023-03-05T01:05:38.245Z,8.67
2023-03-05T01:08:05.081Z,7.73
2023-03-05T01:10:31.630Z,8.10
2023-03-05T01:12:58.135Z,14.97
2023-03-05T01:15:25.407Z,12.40
2023-03-05T01:17:52.244Z,10.53
2023-03-05T01:20:20.495Z,14.50
2023-03-05T01:22:47.505Z,10.20
2023-03-05T01:25:15.276Z,13.00
2023-03-05T01:27:41.873Z,12.73
2023-03-05T01:30:09.912Z,9.83
2023-03-05T01:32:36.718Z,10.17
2023-03-05T01:35:06.017Z,11.50
2023-03-05T01:37:32.719Z,9.90
2023-03-05T01:40:02.509Z,7.30
2023-03-05T01:42:29.449Z,8.57
2023-03-05T01:45:14.131Z,13.27
2023-03-05T01:47:41.092Z,12.73
2023-03-05T01:50:10.568Z,8.90
2023-03-05T01:52:41.222Z,10.53
2023-03-05T01:55:16.709Z,8.40
2023-03-05T01:57:50.311Z,11.63
2023-03-05T02:00:22.251Z,13.23
2023-03-05T02:02:51.177Z,8.37
2023-03-05T02:05:27.242Z,10.37
2023-03-05T02:08:02.217Z,11.30
2023-03-05T02:10:36.474Z,8.30
2023-03-05T02:13:06.763Z,13.57
2023-03-05T02:15:34.901Z,9.40
2023-03-05T02:18:01.997Z,11.60
2023-03-05T02:20:31.573Z,8.40
2023-03-05T02:22:58.217Z,7.50
2023-03-05T02:25:28.212Z,12.03
2023-03-05T02:28:08.095Z,10.10
2023-03-05T02:30:35.693Z,8.50
2023-03-05T02:33:02.662Z,11.97
2023-03-05T02:35:29.569Z,9.20
2023-03-05T02:37:56.274Z,11.57
2023-03-05T02:40:23.470Z,9.27
2023-03-05T02:42:50.016Z,10.33
2023-03-05T02:45:17.330Z,17.50
2023-03-05T02:47:44.371Z,13.53
2023-03-05T02:50:12.566Z,8.43
2023-03-05T02:52:39.474Z,13.33
2023-03-05T02:55:06.931Z,10.13
2023-03-05T02:57:33.546Z,13.67
2023-03-05T03:00:00.187Z,12.10
2023-03-05T03:02:26.934Z,11.50
2023-03-05T03:04:53.459Z,15.63
2023-03-05T03:07:20.258Z,9.83
2023-03-05T03:09:47.000Z,9.90
2023-03-05T03:12:13.585Z,8.57
2023-03-05T03:14:42.515Z,6.50
2023-03-05T03:17:10.826Z,8.60
2023-03-05T03:19:37.800Z,7.57
2023-03-05T03:22:05.259Z,11.23
2023-03-05T03:24:33.608Z,8.37
2023-03-05T03:27:00.179Z,12.00
2023-03-05T03:29:26.972Z,16.83
2023-03-05T03:31:53.767Z,9.73
2023-03-05T03:34:21.543Z,7.07
2023-03-05T03:36:49.991Z,10.30
2023-03-05T03:39:17.637Z,6.27
2023-03-05T03:41:46.516Z,6.40
2023-03-05T03:44:13.867Z,9.30
2023-03-05T03:46:41.421Z,7.33
2023-03-05T03:49:10.813Z,9.67
2023-03-05T03:51:37.341Z,11.27
2023-03-05T03:54:03.991Z,7.03
2023-03-05T03:56:30.537Z,6.43
2023-03-05T03:58:57.056Z,7.63
2023-03-05T04:01:26.206Z,9.33
2023-03-05T04:03:52.789Z,7.03
2023-03-05T04:06:20.633Z,9.90
2023-03-05T04:08:47.268Z,12.13
2023-03-05T04:11:15.251Z,6.33
2023-03-05T04:13:42.071Z,9.00
2023-03-05T04:16:08.693Z,7.13
2023-03-05T04:18:37.699Z,7.33
2023-03-05T04:21:04.601Z,6.43
2023-03-05T04:23:31.444Z,8.37
2023-03-05T04:25:58.014Z,7.30
2023-03-05T04:28:24.611Z,10.63
2023-03-05T04:30:51.700Z,9.27
2023-03-05T04:33:18.333Z,15.50
2023-03-05T04:35:45.079Z,7.00
2023-03-05T04:38:11.628Z,5.87
2023-03-05T04:40:38.686Z,7.97
2023-03-05T04:43:05.569Z,6.67
2023-03-05T04:45:33.029Z,8.20
2023-03-05T04:48:00.441Z,9.93
2023-03-05T04:50:27.024Z,10.20
2023-03-05T04:52:54.149Z,5.53
2023-03-05T04:55:20.763Z,7.10
2023-03-05T04:57:47.397Z,7.43
2023-03-05T05:00:16.809Z,9.80
2023-03-05T05:02:49.644Z,7.40
2023-03-05T05:05:19.182Z,8.37
2023-03-05T05:07:46.161Z,4.63
2023-03-05T05:10:14.467Z,11.40
2023-03-05T05:12:41.633Z,5.37
2023-03-05T05:15:09.093Z,8.43
2023-03-05T05:17:35.804Z,7.30
2023-03-05T05:20:06.701Z,11.33
2023-03-05T05:22:34.178Z,7.63
2023-03-05T05:25:01.707Z,8.17
2023-03-05T05:27:28.433Z,8.23
2023-03-05T05:29:54.991Z,11.73
2023-03-05T05:32:24.104Z,11.93
2023-03-05T05:34:58.631Z,11.83
2023-03-05T05:37:26.367Z,7.33
2023-03-05T05:39:53.272Z,5.70
2023-03-05T05:42:22.472Z,8.37
2023-03-05T05:44:49.853Z,9.73
2023-03-05T05:47:17.669Z,5.33
2023-03-05T05:49:44.251Z,10.67
2023-03-05T05:52:10.999Z,12.37
2023-03-05T05:54:38.761Z,10.77
2023-03-05T05:57:05.850Z,12.77
2023-03-05T05:59:32.517Z,12.23
2023-03-05T06:01:59.605Z,9.57
2023-03-05T06:04:28.888Z,9.57
2023-03-05T06:06:55.702Z,10.73
2023-03-05T06:09:22.535Z,9.50
2023-03-05T06:11:49.107Z,11.47
2023-03-05T06:14:16.237Z,7.73
2023-03-05T06:16:42.871Z,8.10
2023-03-05T06:19:14.587Z,9.90
2023-03-05T06:21:41.572Z,11.40
2023-03-05T06:24:08.523Z,10.93
2023-03-05T06:26:35.576Z,8.77
2023-03-05T06:29:02.152Z,10.47
2023-03-05T06:51:53.112Z,10.00
2023-03-05T06:54:19.692Z,10.13
2023-03-05T06:56:47.112Z,12.17
2023-03-05T06:59:15.137Z,7.33
2023-03-05T07:01:42.106Z,6.50
2023-03-05T07:04:09.247Z,9.57
2023-03-05T07:06:39.280Z,13.17
2023-03-05T07:09:09.369Z,9.77
2023-03-05T07:11:36.134Z,8.87
2023-03-05T07:14:06.140Z,8.87
2023-03-05T07:16:35.815Z,8.47
2023-03-05T07:19:13.650Z,19.43
2023-03-05T07:21:40.347Z,11.37
2023-03-05T07:24:08.086Z,14.50
2023-03-05T07:26:35.444Z,9.83
2023-03-05T07:29:02.885Z,12.90
2023-03-05T07:31:31.989Z,14.67
2023-03-05T07:34:00.534Z,10.90
2023-03-05T07:36:30.149Z,11.67
2023-03-05T07:38:56.738Z,9.27
2023-03-05T07:41:29.172Z,8.67
2023-03-05T07:43:56.120Z,6.00
2023-03-05T07:46:26.925Z,13.47
2023-03-05T07:48:57.069Z,7.93
2023-03-05T07:51:25.595Z,12.07
2023-03-05T07:53:53.307Z,11.97
2023-03-05T07:56:35.445Z,9.53
2023-03-05T07:59:06.088Z,11.67
2023-03-05T08:01:33.832Z,8.47
2023-03-05T08:04:00.814Z,8.57
2023-03-05T08:06:28.075Z,10.77
2023-03-05T08:08:55.114Z,10.10
2023-03-05T08:11:22.097Z,10.80
2023-03-05T08:13:48.890Z,10.33
2023-03-05T08:16:18.971Z,13.70
2023-03-05T08:18:45.998Z,11.50
2023-03-05T08:21:23.131Z,8.67
2023-03-05T08:23:50.078Z,7.73
2023-03-05T08:26:21.059Z,11.93
2023-03-05T08:28:48.512Z,11.23
2023-03-05T08:38:01.373Z,10.90
2023-03-05T08:40:28.045Z,10.83
2023-03-05T08:42:55.189Z,12.63
2023-03-05T08:45:21.804Z,10.97
2023-03-05T08:47:48.459Z,14.87
2023-03-05T08:50:15.622Z,13.80
2023-03-05T08:52:42.194Z,10.37
2023-03-05T08:55:09.133Z,11.17
2023-03-05T08:57:35.631Z,14.63
2023-03-05T09:00:02.407Z,15.10
2023-03-05T09:02:29.024Z,10.73
2023-03-05T09:04:55.622Z,13.37
2023-03-05T09:07:25.778Z,12.50
2023-03-05T09:09:54.967Z,10.83
2023-03-05T09:12:21.540Z,13.37
2023-03-05T09:14:48.417Z,11.93
2023-03-05T09:17:14.956Z,12.93
2023-03-05T09:19:41.560Z,10.50
2023-03-05T09:22:08.270Z,9.83
2023-03-05T09:24:34.919Z,13.87
2023-03-05T09:27:01.700Z,9.63
2023-03-05T09:29:30.167Z,9.40
2023-03-05T09:31:57.270Z,13.00
2023-03-05T09:34:26.064Z,10.97
2023-03-05T09:36:52.939Z,12.37
2023-03-05T09:39:19.483Z,13.20
2023-03-05T09:42:25.936Z,11.70
2023-03-05T09:45:10.621Z,10.57
2023-03-05T09:48:09.823Z,12.73
2023-03-05T09:50:48.259Z,11.97
2023-03-05T09:53:26.965Z,15.37
2023-03-05T09:55:58.848Z,14.13
2023-03-05T09:58:37.327Z,16.40
2023-03-05T10:01:21.490Z,15.40
2023-03-05T10:04:02.019Z,12.77
2023-03-05T10:06:55.730Z,17.73
2023-03-05T10:09:47.516Z,14.07
2023-03-05T10:12:28.056Z,9.07
2023-03-05T10:14:55.254Z,7.90
2023-03-05T10:17:43.987Z,8.30
2023-03-05T10:20:29.897Z,10.67
2023-03-05T10:23:16.440Z,9.77
2023-03-05T10:25:58.547Z,6.77
2023-03-05T10:28:45.309Z,6.00
2023-03-05T10:31:45.487Z,7.83
2023-03-05T10:34:22.624Z,6.47
2023-03-05T10:37:27.582Z,8.00
2023-03-05T10:40:02.719Z,5.77
2023-03-05T10:42:54.817Z,7.77
2023-03-05T10:45:24.365Z,4.73
2023-03-05T10:48:06.074Z,7.50
2023-03-05T10:50:41.407Z,6.60
2023-03-05T10:53:19.703Z,6.63
2023-03-05T10:55:46.263Z,8.43
2023-03-05T10:58:15.086Z,8.73
2023-03-05T11:01:02.801Z,8.83
2023-03-05T11:03:46.497Z,8.97
2023-03-05T11:06:13.701Z,13.27
2023-03-05T11:08:40.560Z,6.93
2023-03-05T11:11:09.927Z,10.20
2023-03-05T11:13:42.590Z,6.73
2023-03-05T11:16:21.303Z,3.67
2023-03-05T11:18:48.041Z,6.43
2023-03-05T11:21:23.856Z,5.87
2023-03-05T11:24:10.725Z,2.97
2023-03-05T11:26:39.586Z,4.33
2023-03-05T11:29:17.973Z,4.73
2023-03-05T11:31:44.494Z,7.17
2023-03-05T11:34:17.054Z,6.03
2023-03-05T11:36:44.623Z,11.63
2023-03-05T11:39:16.728Z,7.13
2023-03-05T11:41:45.410Z,6.47
2023-03-05T11:44:34.675Z,11.70
2023-03-05T11:47:32.419Z,6.93
2023-03-05T11:50:12.862Z,4.80
2023-03-05T11:52:49.912Z,6.63
2023-03-05T11:55:27.016Z,9.70
2023-03-05T11:57:57.566Z,3.30
2023-03-05T12:00:28.659Z,4.60
2023-03-05T12:02:57.550Z,2.40
2023-03-05T12:05:24.534Z,3.03
2023-03-05T12:07:55.789Z,4.63
2023-03-05T12:10:24.941Z,3.77
2023-03-05T12:13:22.831Z,4.77
2023-03-05T12:16:20.219Z,5.27
2023-03-05T12:19:20.714Z,4.40
2023-03-05T12:21:51.012Z,6.83
2023-03-05T12:24:24.841Z,2.70
2023-03-05T12:26:53.247Z,7.27
2023-03-05T12:29:39.882Z,7.13
2023-03-05T12:32:29.262Z,6.10
2023-03-05T12:34:57.978Z,5.83
2023-03-05T12:37:24.835Z,6.93
2023-03-05T12:40:04.573Z,3.67
2023-03-05T12:42:31.587Z,3.53
2023-03-05T12:45:11.751Z,5.50
2023-03-05T12:47:40.575Z,5.30
2023-03-05T12:50:29.146Z,7.13
2023-03-05T12:53:10.505Z,7.73
2023-03-05T12:55:48.285Z,4.30
2023-03-05T12:58:21.153Z,5.23
2023-03-05T13:00:53.362Z,4.00
2023-03-05T13:03:28.263Z,5.60
2023-03-05T13:05:58.192Z,8.87
2023-03-05T13:08:35.625Z,3.57
2023-03-05T13:11:08.558Z,4.33
2023-03-05T13:13:38.922Z,5.20
2023-03-05T13:16:06.249Z,3.30
2023-03-05T13:18:33.516Z,5.23
2023-03-05T13:21:08.832Z,4.97
2023-03-05T13:23:35.765Z,6.10
2023-03-05T13:26:22.952Z,13.83
2023-03-05T13:29:13.161Z,7.20
2023-03-05T13:31:46.273Z,6.37
2023-03-05T13:34:18.020Z,6.10
2023-03-05T13:36:59.635Z,7.73
2023-03-05T13:39:33.190Z,9.97
2023-03-05T13:42:15.819Z,10.03
2023-03-05T13:44:43.176Z,9.43
2023-03-05T13:47:20.089Z,7.43
2023-03-05T13:49:47.482Z,8.00
2023-03-05T13:52:29.936Z,9.27
2023-03-05T13:54:58.161Z,9.87
2023-03-05T13:57:39.158Z,8.87
2023-03-05T14:00:24.943Z,4.43
2023-03-05T14:02:52.634Z,6.07
2023-03-05T14:05:19.941Z,4.50
2023-03-05T14:07:51.610Z,7.93
2023-03-05T14:10:31.661Z,5.07
2023-03-05T14:12:59.895Z,6.93
2023-03-05T14:15:35.379Z,10.57
2023-03-05T14:18:10.768Z,7.97
2023-03-05T14:20:38.737Z,3.40
2023-03-05T14:23:52.975Z,5.77
2023-03-05T14:26:27.531Z,4.93
2023-03-05T14:29:01.503Z,4.07
2023-03-05T14:31:30.934Z,5.30
2023-03-05T14:34:07.340Z,6.07
2023-03-05T14:36:35.518Z,4.17
2023-03-05T14:39:02.260Z,3.43
2023-03-05T14:41:40.613Z,5.80
2023-03-05T14:44:17.582Z,3.10
2023-03-05T14:46:49.208Z,4.80
2023-03-05T14:49:16.807Z,5.60
2023-03-05T14:51:46.068Z,5.53
2023-03-05T14:54:26.098Z,4.33
2023-03-05T14:56:53.244Z,8.27
2023-03-05T14:59:22.630Z,4.60
2023-03-05T15:01:52.300Z,7.90
2023-03-05T15:04:19.948Z,4.13
2023-03-05T15:06:51.085Z,4.60
2023-03-05T15:09:21.199Z,3.83
2023-03-05T15:11:48.558Z,4.77
2023-03-05T15:14:15.103Z,4.07
2023-03-05T15:16:45.250Z,3.93
2023-03-05T15:19:13.090Z,4.40
2023-03-05T15:21:40.202Z,5.23
2023-03-05T15:24:06.995Z,3.93
2023-03-05T15:26:40.046Z,5.57
2023-03-05T15:29:06.791Z,4.27
2023-03-05T15:31:38.695Z,4.20
2023-03-05T15:34:06.177Z,4.13
2023-03-05T15:36:35.896Z,7.53
2023-03-05T15:39:08.301Z,4.73
2023-03-05T15:41:34.880Z,4.63
2023-03-05T15:44:02.541Z,3.27
2023-03-05T15:46:29.283Z,4.20
2023-03-05T15:48:55.987Z,6.50
2023-03-05T15:51:26.027Z,6.47
2023-03-05T15:53:55.503Z,3.80
2023-03-05T15:56:22.200Z,5.83
2023-03-05T15:58:50.793Z,4.37
2023-03-05T16:01:20.815Z,4.27
2023-03-05T16:03:47.503Z,2.50
2023-03-05T16:06:15.879Z,3.30
2023-03-05T16:08:46.413Z,4.13
2023-03-05T16:11:13.657Z,4.27
2023-03-05T16:13:41.427Z,5.47
2023-03-05T16:16:09.842Z,4.07
2023-03-05T16:18:41.926Z,4.57
2023-03-05T16:21:08.483Z,3.47
2023-03-05T16:23:35.075Z,5.13
2023-03-05T16:26:01.670Z,4.13
2023-03-05T16:28:28.283Z,5.97
2023-03-05T16:31:00.280Z,5.43
2023-03-05T16:33:26.908Z,6.50
2023-03-05T16:36:11.556Z,10.57
2023-03-05T16:38:38.403Z,9.53
2023-03-05T16:41:08.958Z,14.07
2023-03-05T16:43:35.662Z,10.30
2023-03-05T16:46:02.262Z,9.13
2023-03-05T16:48:30.152Z,12.63
2023-03-05T16:50:57.830Z,13.53
2023-03-05T16:53:24.355Z,8.17
2023-03-05T16:55:50.911Z,9.10
2023-03-05T16:58:17.376Z,7.20
2023-03-05T17:00:47.090Z,8.93
2023-03-05T17:03:13.682Z,11.90
2023-03-05T17:05:40.690Z,12.30
2023-03-05T17:08:07.548Z,16.23
2023-03-05T17:10:34.092Z,11.73
2023-03-05T17:13:01.011Z,14.37
2023-03-05T17:15:27.656Z,12.43
2023-03-05T17:17:54.207Z,13.23
2023-03-05T17:20:20.786Z,11.23
2023-03-05T17:22:47.473Z,9.20
2023-03-05T17:25:14.215Z,8.20
2023-03-05T17:27:40.751Z,5.33
2023-03-05T17:30:08.479Z,5.87
2023-03-05T17:32:35.557Z,5.10
2023-03-05T17:35:04.404Z,6.27
2023-03-05T17:37:31.914Z,6.43
2023-03-05T17:39:58.424Z,7.67
2023-03-05T17:42:25.041Z,7.93
2023-03-05T17:44:51.603Z,9.90
2023-03-05T17:47:18.198Z,7.67
2023-03-05T17:49:44.834Z,6.13
2023-03-05T17:52:11.391Z,11.10
2023-03-05T17:54:37.983Z,5.80
2023-03-05T17:57:06.613Z,5.13
2023-03-05T17:59:33.176Z,6.70
2023-03-05T18:01:59.802Z,6.33
2023-03-05T18:04:26.370Z,4.67
2023-03-05T18:06:52.969Z,5.20
2023-03-05T18:09:20.091Z,3.97
2023-03-05T18:11:51.290Z,5.60
2023-03-05T18:14:18.801Z,5.30
2023-03-05T18:16:45.824Z,5.30
2023-03-05T18:19:12.630Z,5.27
2023-03-05T18:21:40.949Z,5.00
2023-03-05T18:24:08.801Z,4.70
2023-03-05T18:26:35.414Z,4.97
2023-03-05T18:29:01.968Z,4.47
2023-03-05T18:31:28.628Z,6.33
2023-03-05T18:33:55.290Z,4.70
2023-03-05T18:36:21.870Z,7.67
2023-03-05T18:38:48.360Z,5.97
2023-03-05T18:41:20.609Z,8.10
2023-03-05T18:43:53.452Z,6.70
2023-03-05T18:46:20.107Z,6.27
2023-03-05T18:48:48.141Z,5.00
2023-03-05T18:51:17.645Z,7.30
2023-03-05T18:53:44.605Z,10.73
2023-03-05T18:56:11.268Z,13.03
2023-03-05T18:58:37.927Z,9.00
2023-03-05T19:01:04.861Z,10.70
2023-03-05T19:03:31.537Z,9.70
2023-03-05T19:05:58.171Z,6.90
2023-03-05T19:08:24.760Z,10.60
2023-03-05T19:10:51.380Z,7.73
2023-03-05T19:17:05.401Z,8.80
2023-03-05T19:19:31.912Z,10.43
2023-03-05T19:21:59.833Z,7.67
2023-03-05T19:24:29.146Z,7.87
2023-03-05T19:27:00.232Z,6.20
2023-03-05T19:29:32.795Z,6.60
2023-03-05T19:31:59.477Z,6.23
2023-03-05T19:34:30.114Z,5.80
2023-03-05T19:36:56.717Z,5.33
2023-03-05T19:39:23.667Z,6.23
2023-03-05T19:41:50.255Z,6.03
2023-03-05T19:44:19.440Z,5.87
2023-03-05T19:46:48.445Z,7.70
2023-03-05T19:49:16.556Z,5.10
2023-03-05T19:51:45.042Z,5.67
2023-03-05T19:54:16.363Z,7.07
2023-03-05T19:56:44.398Z,5.17
2023-03-05T19:59:10.959Z,6.43
2023-03-05T20:01:37.625Z,6.30
2023-03-05T20:04:05.254Z,6.83
2023-03-05T20:06:33.329Z,7.93
2023-03-05T20:09:00.269Z,8.00
2023-03-05T20:11:28.412Z,7.97
2023-03-05T20:13:55.637Z,9.70
2023-03-05T20:16:25.434Z,9.47
2023-03-05T20:18:54.906Z,9.10
2023-03-05T20:21:26.930Z,8.23
2023-03-05T20:23:56.228Z,8.40
2023-03-05T20:26:25.896Z,7.37
2023-03-05T20:28:54.191Z,8.27
2023-03-05T20:31:25.213Z,8.27
2023-03-05T20:33:52.054Z,7.90
2023-03-05T20:36:18.795Z,7.87
2023-03-05T20:38:46.754Z,11.60
2023-03-05T20:41:18.791Z,11.20
2023-03-05T20:43:48.811Z,9.97
2023-03-05T20:46:18.252Z,8.67
2023-03-05T20:48:48.047Z,8.93
2023-03-05T20:51:22.663Z,10.43
2023-03-05T20:53:51.241Z,9.07
2023-03-05T20:56:17.834Z,8.67
2023-03-05T20:58:44.446Z,9.70
2023-03-05T21:01:11.358Z,9.73
2023-03-05T21:03:38.894Z,10.17
2023-03-05T21:06:06.388Z,9.87
2023-03-05T21:08:33.179Z,10.17
2023-03-05T21:10:59.887Z,9.50
2023-03-05T21:13:26.617Z,9.10
2023-03-05T21:15:53.193Z,7.97
2023-03-05T21:18:19.812Z,8.63
2023-03-05T21:20:46.454Z,8.00
2023-03-05T21:23:13.189Z,8.83
2023-03-05T21:25:39.883Z,7.37
2023-03-05T21:28:12.069Z,10.40
2023-03-05T21:30:43.601Z,7.87
2023-03-05T21:33:13.310Z,9.43
2023-03-05T21:35:40.662Z,8.70
2023-03-05T21:38:08.771Z,8.70
2023-03-05T21:40:39.938Z,7.27
2023-03-05T21:43:06.480Z,7.70
2023-03-05T21:45:33.243Z,7.23
2023-03-05T21:47:59.894Z,6.40
2023-03-05T21:50:26.857Z,6.80
2023-03-05T21:52:53.878Z,6.83
2023-03-05T21:55:27.182Z,5.70
2023-03-05T21:57:53.803Z,5.80
2023-03-05T22:00:23.230Z,5.33
2023-03-05T22:02:49.837Z,7.33
2023-03-05T22:05:16.405Z,7.43
2023-03-05T22:07:44.101Z,5.47
2023-03-05T22:10:20.136Z,5.87
2023-03-05T22:13:07.960Z,6.43
2023-03-05T22:15:40.454Z,9.00
2023-03-05T22:18:06.979Z,8.80
2023-03-05T22:20:35.136Z,5.93
2023-03-05T22:26:43.048Z,5.97
2023-03-05T22:29:12.837Z,6.37
2023-03-05T22:31:40.597Z,5.93
2023-03-05T22:34:07.294Z,6.57
2023-03-05T22:36:33.921Z,6.57
2023-03-05T22:39:00.492Z,6.77
2023-03-05T22:41:27.113Z,5.97
2023-03-05T22:43:53.695Z,4.57
2023-03-05T22:46:23.254Z,6.73
2023-03-05T22:48:50.980Z,4.70
2023-03-05T22:51:18.344Z,6.27
2023-03-05T22:53:46.118Z,8.53
2023-03-05T22:56:15.750Z,7.50
2023-03-05T22:58:42.835Z,6.73
2023-03-05T23:01:21.008Z,6.77
2023-03-05T23:03:54.920Z,6.27
2023-03-05T23:06:21.503Z,8.60
2023-03-05T23:08:48.040Z,7.23
2023-03-05T23:11:14.765Z,8.23
2023-03-05T23:13:41.854Z,7.40
2023-03-05T23:16:09.861Z,7.73
2023-03-05T23:18:36.975Z,8.37
2023-03-05T23:21:03.978Z,9.13
2023-03-05T23:23:30.485Z,8.97
2023-03-05T23:25:57.052Z,9.83
2023-03-05T23:28:23.746Z,7.60
2023-03-05T23:30:50.342Z,7.90
2023-03-05T23:33:19.831Z,8.67
2023-03-05T23:35:56.108Z,8.23
2023-03-05T23:38:24.170Z,10.57
2023-03-05T23:40:54.180Z,8.00
2023-03-05T23:43:24.628Z,8.07
2023-03-05T23:45:56.198Z,10.20
2023-03-05T23:48:25.446Z,8.00
2023-03-05T23:50:52.941Z,7.57
2023-03-05T23:53:29.317Z,6.60
2023-03-05T23:55:56.538Z,8.53
2023-03-05T23:58:23.643Z,8.70
